sensor_id;sensor_type;location;lat;lon;timestamp;P1;durP1;ratioP1;P2;durP2;ratioP2
65684;SDS011;52405;50.844;-1.062;2022-09-12T00:01:45;27.92;;;15.63;;
65684;SDS011;52405;50.844;-1.062;2022-09-12T00:04:12;21.45;;;15.43;;
65684;SDS011;52405;50.844;-1.062;2022-09-12T00:06:41;30.33;;;17.45;;
65684;SDS011;52405;50.844;-1.062;2022-09-12T00:09:08;22.05;;;16.40;;
65684;SDS011;52405;50.844;-1.062;2022-09-12T00:11:37;26.38;;;17.70;;
65684;SDS011;52405;50.844;-1.062;2022-09-12T00:14:05;23.33;;;16.70;;
65684;SDS011;52405;50.844;-1.062;2022-09-12T00:16:32;25.92;;;16.33;;
65684;SDS011;52405;50.844;-1.062;2022-09-12T00:18:59;29.70;;;17.98;;
65684;SDS011;52405;50.844;-1.062;2022-09-12T00:21:26;26.17;;;16.88;;
65684;SDS011;52405;50.844;-1.062;2022-09-12T00:23:52;25.65;;;16.63;;
65684;SDS011;52405;50.844;-1.062;2022-09-12T00:26:18;24.33;;;16.77;;
65684;SDS011;52405;50.844;-1.062;2022-09-12T00:28:45;21.80;;;16.55;;
65684;SDS011;52405;50.844;-1.062;2022-09-12T00:31:12;22.73;;;16.40;;
65684;SDS011;52405;50.844;-1.062;2022-09-12T00:33:44;22.08;;;16.10;;
65684;SDS011;52405;50.844;-1.062;2022-09-12T00:36:12;29.52;;;16.73;;
65684;SDS011;52405;50.844;-1.062;2022-09-12T00:38:42;23.60;;;17.65;;
65684;SDS011;52405;50.844;-1.062;2022-09-12T00:41:14;21.55;;;16.20;;
65684;SDS011;52405;50.844;-1.062;2022-09-12T00:43:48;31.55;;;18.42;;
65684;SDS011;52405;50.844;-1.062;2022-09-12T00:46:27;27.25;;;17.25;;
65684;SDS011;52405;50.844;-1.062;2022-09-12T00:49:05;28.17;;;16.52;;
65684;SDS011;52405;50.844;-1.062;2022-09-12T00:51:37;32.40;;;17.67;;
65684;SDS011;52405;50.844;-1.062;2022-09-12T00:54:05;29.25;;;17.27;;
65684;SDS011;52405;50.844;-1.062;2022-09-12T00:56:34;30.55;;;16.83;;
65684;SDS011;52405;50.844;-1.062;2022-09-12T00:59:04;27.67;;;17.60;;
65684;SDS011;52405;50.844;-1.062;2022-09-12T01:01:33;30.27;;;18.35;;
65684;SDS011;52405;50.844;-1.062;2022-09-12T01:03:59;31.42;;;19.23;;
65684;SDS011;52405;50.844;-1.062;2022-09-12T01:06:27;27.55;;;18.98;;
65684;SDS011;52405;50.844;-1.062;2022-09-12T01:08:54;29.23;;;19.50;;
65684;SDS011;52405;50.844;-1.062;2022-09-12T01:11:21;36.47;;;19.55;;
65684;SDS011;52405;50.844;-1.062;2022-09-12T01:13:47;32.08;;;20.40;;
65684;SDS011;52405;50.844;-1.062;2022-09-12T01:16:14;32.17;;;21.25;;
65684;SDS011;52405;50.844;-1.062;2022-09-12T01:21:31;29.00;;;19.17;;
65684;SDS011;52405;50.844;-1.062;2022-09-12T01:24:10;33.72;;;19.70;;
65684;SDS011;52405;50.844;-1.062;2022-09-12T01:27:15;31.58;;;20.85;;
65684;SDS011;52405;50.844;-1.062;2022-09-12T01:30:30;32.88;;;20.23;;
65684;SDS011;52405;50.844;-1.062;2022-09-12T01:40:37;26.50;;;19.25;;
65684;SDS011;52405;50.844;-1.062;2022-09-12T01:48:32;30.65;;;18.88;;
65684;SDS011;52405;50.844;-1.062;2022-09-12T01:53:48;29.33;;;19.33;;
65684;SDS011;52405;50.844;-1.062;2022-09-12T01:56:23;29.90;;;17.63;;
65684;SDS011;52405;50.844;-1.062;2022-09-12T01:58:53;30.63;;;18.77;;
65684;SDS011;52405;50.844;-1.062;2022-09-12T02:01:35;32.72;;;17.83;;
65684;SDS011;52405;50.844;-1.062;2022-09-12T02:04:10;32.08;;;18.45;;
65684;SDS011;52405;50.844;-1.062;2022-09-12T02:12:11;26.42;;;16.55;;
65684;SDS011;52405;50.844;-1.062;2022-09-12T02:14:41;24.67;;;16.15;;
65684;SDS011;52405;50.844;-1.062;2022-09-12T02:17:17;24.50;;;17.15;;
65684;SDS011;52405;50.844;-1.062;2022-09-12T02:19:48;19.92;;;15.07;;
65684;SDS011;52405;50.844;-1.062;2022-09-12T02:22:17;25.00;;;14.07;;
65684;SDS011;52405;50.844;-1.062;2022-09-12T02:24:47;25.05;;;14.77;;
65684;SDS011;52405;50.844;-1.062;2022-09-12T02:27:35;23.77;;;14.25;;
65684;SDS011;52405;50.844;-1.062;2022-09-12T02:30:06;23.20;;;15.23;;
65684;SDS011;52405;50.844;-1.062;2022-09-12T02:41:04;17.38;;;13.73;;
65684;SDS011;52405;50.844;-1.062;2022-09-12T02:43:31;20.23;;;13.25;;
65684;SDS011;52405;50.844;-1.062;2022-09-12T02:45:57;22.08;;;13.35;;
65684;SDS011;52405;50.844;-1.062;2022-09-12T02:48:29;26.25;;;15.15;;
65684;SDS011;52405;50.844;-1.062;2022-09-12T02:50:58;21.05;;;14.77;;
65684;SDS011;52405;50.844;-1.062;2022-09-12T02:53:24;21.13;;;13.65;;
65684;SDS011;52405;50.844;-1.062;2022-09-12T02:55:50;26.65;;;14.73;;
65684;SDS011;52405;50.844;-1.062;2022-09-12T02:58:18;25.67;;;13.02;;
65684;SDS011;52405;50.844;-1.062;2022-09-12T03:01:02;18.48;;;12.07;;
65684;SDS011;52405;50.844;-1.062;2022-09-12T03:08:03;19.90;;;11.40;;
65684;SDS011;52405;50.844;-1.062;2022-09-12T03:10:27;17.70;;;11.20;;
65684;SDS011;52405;50.844;-1.062;2022-09-12T03:18:39;16.85;;;11.65;;
65684;SDS011;52405;50.844;-1.062;2022-09-12T03:26:43;22.48;;;11.93;;
65684;SDS011;52405;50.844;-1.062;2022-09-12T03:29:09;19.90;;;11.43;;
65684;SDS011;52405;50.844;-1.062;2022-09-12T03:31:38;17.40;;;11.18;;
65684;SDS011;52405;50.844;-1.062;2022-09-12T03:34:12;16.60;;;10.57;;
65684;SDS011;52405;50.844;-1.062;2022-09-12T03:36:38;21.85;;;10.40;;
65684;SDS011;52405;50.844;-1.062;2022-09-12T03:39:05;14.13;;;9.95;;
65684;SDS011;52405;50.844;-1.062;2022-09-12T03:41:30;14.38;;;9.98;;
65684;SDS011;52405;50.844;-1.062;2022-09-12T03:43:56;17.10;;;10.02;;
65684;SDS011;52405;50.844;-1.062;2022-09-12T03:46:21;14.20;;;10.25;;
65684;SDS011;52405;50.844;-1.062;2022-09-12T03:48:47;14.73;;;9.73;;
65684;SDS011;52405;50.844;-1.062;2022-09-12T03:51:12;15.05;;;9.85;;
65684;SDS011;52405;50.844;-1.062;2022-09-12T03:53:37;18.58;;;10.98;;
65684;SDS011;52405;50.844;-1.062;2022-09-12T03:56:07;17.25;;;10.43;;
65684;SDS011;52405;50.844;-1.062;2022-09-12T03:58:34;21.20;;;10.13;;
65684;SDS011;52405;50.844;-1.062;2022-09-12T04:01:05;15.93;;;10.85;;
65684;SDS011;52405;50.844;-1.062;2022-09-12T04:03:37;14.93;;;9.93;;
65684;SDS011;52405;50.844;-1.062;2022-09-12T04:06:06;15.20;;;10.77;;
65684;SDS011;52405;50.844;-1.062;2022-09-12T04:08:33;15.55;;;9.60;;
65684;SDS011;52405;50.844;-1.062;2022-09-12T04:11:03;12.20;;;9.38;;
65684;SDS011;52405;50.844;-1.062;2022-09-12T04:13:36;13.80;;;8.15;;
65684;SDS011;52405;50.844;-1.062;2022-09-12T04:16:03;16.25;;;8.48;;
65684;SDS011;52405;50.844;-1.062;2022-09-12T04:18:30;12.00;;;8.30;;
65684;SDS011;52405;50.844;-1.062;2022-09-12T04:20:56;12.25;;;9.05;;
65684;SDS011;52405;50.844;-1.062;2022-09-12T04:23:22;14.13;;;7.70;;
65684;SDS011;52405;50.844;-1.062;2022-09-12T04:25:58;11.02;;;7.35;;
65684;SDS011;52405;50.844;-1.062;2022-09-12T04:28:25;11.13;;;6.68;;
65684;SDS011;52405;50.844;-1.062;2022-09-12T04:30:53;7.97;;;7.00;;
65684;SDS011;52405;50.844;-1.062;2022-09-12T04:33:19;12.63;;;7.20;;
65684;SDS011;52405;50.844;-1.062;2022-09-12T04:35:45;14.93;;;6.90;;
65684;SDS011;52405;50.844;-1.062;2022-09-12T04:38:11;13.95;;;7.45;;
65684;SDS011;52405;50.844;-1.062;2022-09-12T04:40:36;12.77;;;7.13;;
65684;SDS011;52405;50.844;-1.062;2022-09-12T04:43:02;11.48;;;6.30;;
65684;SDS011;52405;50.844;-1.062;2022-09-12T04:45:28;10.40;;;6.60;;
65684;SDS011;52405;50.844;-1.062;2022-09-12T04:47:54;9.82;;;6.45;;
65684;SDS011;52405;50.844;-1.062;2022-09-12T04:50:19;9.85;;;5.85;;
65684;SDS011;52405;50.844;-1.062;2022-09-12T04:52:48;10.15;;;6.22;;
65684;SDS011;52405;50.844;-1.062;2022-09-12T04:55:18;12.98;;;6.78;;
65684;SDS011;52405;50.844;-1.062;2022-09-12T04:57:44;9.25;;;6.72;;
65684;SDS011;52405;50.844;-1.062;2022-09-12T05:00:10;10.38;;;6.18;;
65684;SDS011;52405;50.844;-1.062;2022-09-12T05:02:37;15.48;;;5.82;;
65684;SDS011;52405;50.844;-1.062;2022-09-12T05:05:03;8.10;;;6.10;;
65684;SDS011;52405;50.844;-1.062;2022-09-12T05:07:29;6.22;;;5.45;;
65684;SDS011;52405;50.844;-1.062;2022-09-12T05:09:54;8.35;;;6.07;;
65684;SDS011;52405;50.844;-1.062;2022-09-12T05:12:20;10.35;;;5.25;;
65684;SDS011;52405;50.844;-1.062;2022-09-12T05:14:45;10.40;;;5.80;;
65684;SDS011;52405;50.844;-1.062;2022-09-12T05:17:11;10.98;;;5.93;;
65684;SDS011;52405;50.844;-1.062;2022-09-12T05:19:36;15.65;;;6.18;;
65684;SDS011;52405;50.844;-1.062;2022-09-12T05:22:02;7.00;;;4.60;;
65684;SDS011;52405;50.844;-1.062;2022-09-12T05:24:28;9.60;;;5.07;;
65684;SDS011;52405;50.844;-1.062;2022-09-12T05:26:54;9.05;;;4.35;;
65684;SDS011;52405;50.844;-1.062;2022-09-12T05:29:19;9.23;;;4.90;;
65684;SDS011;52405;50.844;-1.062;2022-09-12T05:31:45;9.20;;;5.05;;
65684;SDS011;52405;50.844;-1.062;2022-09-12T05:34:14;12.43;;;5.47;;
65684;SDS011;52405;50.844;-1.062;2022-09-12T05:36:39;6.60;;;4.18;;
65684;SDS011;52405;50.844;-1.062;2022-09-12T05:39:05;7.38;;;3.78;;
65684;SDS011;52405;50.844;-1.062;2022-09-12T05:41:31;9.88;;;4.03;;
65684;SDS011;52405;50.844;-1.062;2022-09-12T05:44:01;7.47;;;4.05;;
65684;SDS011;52405;50.844;-1.062;2022-09-12T05:46:50;9.75;;;3.80;;
65684;SDS011;52405;50.844;-1.062;2022-09-12T05:49:17;9.27;;;3.25;;
65684;SDS011;52405;50.844;-1.062;2022-09-12T05:51:43;11.80;;;4.10;;
65684;SDS011;52405;50.844;-1.062;2022-09-12T05:54:10;8.55;;;2.70;;
65684;SDS011;52405;50.844;-1.062;2022-09-12T05:56:38;8.57;;;4.53;;
65684;SDS011;52405;50.844;-1.062;2022-09-12T05:59:07;8.60;;;4.18;;
65684;SDS011;52405;50.844;-1.062;2022-09-12T06:01:36;8.23;;;3.78;;
65684;SDS011;52405;50.844;-1.062;2022-09-12T06:04:03;8.98;;;5.38;;
65684;SDS011;52405;50.844;-1.062;2022-09-12T06:06:30;12.73;;;3.85;;
65684;SDS011;52405;50.844;-1.062;2022-09-12T06:08:57;12.70;;;4.30;;
65684;SDS011;52405;50.844;-1.062;2022-09-12T06:11:25;15.52;;;3.75;;
65684;SDS011;52405;50.844;-1.062;2022-09-12T06:13:53;13.60;;;3.50;;
65684;SDS011;52405;50.844;-1.062;2022-09-12T06:16:21;7.82;;;3.42;;
65684;SDS011;52405;50.844;-1.062;2022-09-12T06:18:59;8.68;;;3.05;;
65684;SDS011;52405;50.844;-1.062;2022-09-12T06:21:27;7.40;;;3.30;;
65684;SDS011;52405;50.844;-1.062;2022-09-12T06:23:54;4.97;;;2.72;;
65684;SDS011;52405;50.844;-1.062;2022-09-12T06:26:22;8.07;;;3.13;;
65684;SDS011;52405;50.844;-1.062;2022-09-12T06:28:49;4.82;;;2.90;;
65684;SDS011;52405;50.844;-1.062;2022-09-12T06:31:20;6.03;;;3.17;;
65684;SDS011;52405;50.844;-1.062;2022-09-12T06:33:49;8.13;;;3.17;;
65684;SDS011;52405;50.844;-1.062;2022-09-12T06:36:16;5.85;;;3.10;;
65684;SDS011;52405;50.844;-1.062;2022-09-12T06:38:45;7.18;;;3.15;;
65684;SDS011;52405;50.844;-1.062;2022-09-12T06:41:11;9.13;;;3.15;;
65684;SDS011;52405;50.844;-1.062;2022-09-12T06:43:38;9.60;;;2.90;;
65684;SDS011;52405;50.844;-1.062;2022-09-12T06:46:05;8.55;;;3.05;;
65684;SDS011;52405;50.844;-1.062;2022-09-12T06:48:31;6.80;;;2.60;;
65684;SDS011;52405;50.844;-1.062;2022-09-12T06:50:58;10.98;;;3.08;;
65684;SDS011;52405;50.844;-1.062;2022-09-12T06:53:28;6.65;;;4.18;;
65684;SDS011;52405;50.844;-1.062;2022-09-12T06:55:57;12.77;;;4.60;;
65684;SDS011;52405;50.844;-1.062;2022-09-12T06:58:24;8.38;;;2.58;;
65684;SDS011;52405;50.844;-1.062;2022-09-12T07:00:51;9.57;;;3.58;;
65684;SDS011;52405;50.844;-1.062;2022-09-12T07:03:17;5.53;;;2.50;;
65684;SDS011;52405;50.844;-1.062;2022-09-12T07:05:44;11.43;;;3.22;;
65684;SDS011;52405;50.844;-1.062;2022-09-12T07:08:10;11.95;;;3.35;;
65684;SDS011;52405;50.844;-1.062;2022-09-12T07:10:35;6.43;;;2.53;;
65684;SDS011;52405;50.844;-1.062;2022-09-12T07:13:01;13.98;;;2.80;;
65684;SDS011;52405;50.844;-1.062;2022-09-12T07:15:26;9.68;;;3.50;;
65684;SDS011;52405;50.844;-1.062;2022-09-12T07:17:52;7.85;;;2.75;;
65684;SDS011;52405;50.844;-1.062;2022-09-12T07:20:18;5.25;;;2.63;;
65684;SDS011;52405;50.844;-1.062;2022-09-12T07:22:43;7.50;;;2.55;;
65684;SDS011;52405;50.844;-1.062;2022-09-12T07:25:09;7.13;;;2.00;;
65684;SDS011;52405;50.844;-1.062;2022-09-12T07:27:34;6.43;;;1.83;;
65684;SDS011;52405;50.844;-1.062;2022-09-12T07:30:01;6.80;;;1.85;;
65684;SDS011;52405;50.844;-1.062;2022-09-12T07:32:29;7.65;;;1.90;;
65684;SDS011;52405;50.844;-1.062;2022-09-12T07:34:54;6.93;;;1.77;;
65684;SDS011;52405;50.844;-1.062;2022-09-12T07:37:20;3.25;;;1.27;;
65684;SDS011;52405;50.844;-1.062;2022-09-12T07:39:45;5.95;;;1.98;;
65684;SDS011;52405;50.844;-1.062;2022-09-12T07:42:11;7.13;;;2.03;;
65684;SDS011;52405;50.844;-1.062;2022-09-12T07:44:37;6.68;;;1.63;;
65684;SDS011;52405;50.844;-1.062;2022-09-12T07:47:02;4.47;;;1.73;;
65684;SDS011;52405;50.844;-1.062;2022-09-12T07:49:28;5.53;;;1.85;;
65684;SDS011;52405;50.844;-1.062;2022-09-12T07:51:54;4.55;;;1.40;;
65684;SDS011;52405;50.844;-1.062;2022-09-12T07:54:20;5.07;;;1.13;;
65684;SDS011;52405;50.844;-1.062;2022-09-12T07:56:45;4.85;;;1.80;;
65684;SDS011;52405;50.844;-1.062;2022-09-12T07:59:11;8.55;;;1.63;;
65684;SDS011;52405;50.844;-1.062;2022-09-12T08:01:37;4.93;;;1.23;;
65684;SDS011;52405;50.844;-1.062;2022-09-12T08:04:04;5.78;;;1.33;;
65684;SDS011;52405;50.844;-1.062;2022-09-12T08:06:29;6.03;;;1.90;;
65684;SDS011;52405;50.844;-1.062;2022-09-12T08:08:56;5.68;;;1.70;;
65684;SDS011;52405;50.844;-1.062;2022-09-12T08:11:23;7.55;;;1.30;;
65684;SDS011;52405;50.844;-1.062;2022-09-12T08:13:52;4.05;;;1.48;;
65684;SDS011;52405;50.844;-1.062;2022-09-12T08:16:20;3.08;;;1.48;;
65684;SDS011;52405;50.844;-1.062;2022-09-12T08:18:46;3.88;;;1.73;;
65684;SDS011;52405;50.844;-1.062;2022-09-12T08:21:16;5.93;;;2.20;;
65684;SDS011;52405;50.844;-1.062;2022-09-12T08:23:43;5.55;;;1.80;;
65684;SDS011;52405;50.844;-1.062;2022-09-12T08:26:10;4.80;;;1.48;;
65684;SDS011;52405;50.844;-1.062;2022-09-12T08:28:36;3.08;;;1.20;;
65684;SDS011;52405;50.844;-1.062;2022-09-12T08:31:09;4.25;;;1.58;;
65684;SDS011;52405;50.844;-1.062;2022-09-12T08:33:36;6.13;;;1.52;;
65684;SDS011;52405;50.844;-1.062;2022-09-12T08:36:06;5.38;;;1.27;;
65684;SDS011;52405;50.844;-1.062;2022-09-12T08:38:38;3.65;;;1.17;;
65684;SDS011;52405;50.844;-1.062;2022-09-12T08:49:37;7.82;;;1.95;;
65684;SDS011;52405;50.844;-1.062;2022-09-12T08:54:52;4.75;;;1.17;;
65684;SDS011;52405;50.844;-1.062;2022-09-12T08:57:20;4.10;;;1.23;;
65684;SDS011;52405;50.844;-1.062;2022-09-12T08:59:46;5.03;;;1.23;;
65684;SDS011;52405;50.844;-1.062;2022-09-12T09:05:24;4.82;;;1.20;;
65684;SDS011;52405;50.844;-1.062;2022-09-12T09:15:37;4.53;;;1.10;;
65684;SDS011;52405;50.844;-1.062;2022-09-12T09:18:20;3.47;;;1.48;;
65684;SDS011;52405;50.844;-1.062;2022-09-12T09:20:50;4.60;;;1.20;;
65684;SDS011;52405;50.844;-1.062;2022-09-12T09:23:39;4.18;;;1.58;;
65684;SDS011;52405;50.844;-1.062;2022-09-12T09:26:09;3.42;;;1.50;;
65684;SDS011;52405;50.844;-1.062;2022-09-12T09:28:56;3.57;;;1.10;;
65684;SDS011;52405;50.844;-1.062;2022-09-12T09:31:28;5.87;;;1.40;;
65684;SDS011;52405;50.844;-1.062;2022-09-12T09:33:58;5.57;;;1.02;;
65684;SDS011;52405;50.844;-1.062;2022-09-12T09:36:39;4.13;;;1.27;;
65684;SDS011;52405;50.844;-1.062;2022-09-12T09:44:56;4.78;;;1.27;;
65684;SDS011;52405;50.844;-1.062;2022-09-12T09:47:24;4.82;;;1.55;;
65684;SDS011;52405;50.844;-1.062;2022-09-12T09:49:50;3.28;;;1.23;;
65684;SDS011;52405;50.844;-1.062;2022-09-12T09:52:16;3.50;;;1.40;;
65684;SDS011;52405;50.844;-1.062;2022-09-12T09:54:52;4.57;;;1.40;;
65684;SDS011;52405;50.844;-1.062;2022-09-12T10:05:48;9.00;;;1.52;;
65684;SDS011;52405;50.844;-1.062;2022-09-12T10:08:18;4.65;;;1.92;;
65684;SDS011;52405;50.844;-1.062;2022-09-12T10:16:25;3.20;;;1.60;;
65684;SDS011;52405;50.844;-1.062;2022-09-12T10:18:59;4.63;;;1.63;;
65684;SDS011;52405;50.844;-1.062;2022-09-12T10:26:37;7.20;;;1.77;;
65684;SDS011;52405;50.844;-1.062;2022-09-12T10:29:13;4.22;;;1.02;;
65684;SDS011;52405;50.844;-1.062;2022-09-12T10:31:42;4.10;;;1.08;;
65684;SDS011;52405;50.844;-1.062;2022-09-12T10:34:22;3.10;;;1.00;;
65684;SDS011;52405;50.844;-1.062;2022-09-12T10:36:52;7.78;;;1.10;;
65684;SDS011;52405;50.844;-1.062;2022-09-12T10:39:22;4.50;;;1.42;;
65684;SDS011;52405;50.844;-1.062;2022-09-12T10:41:48;5.47;;;1.48;;
65684;SDS011;52405;50.844;-1.062;2022-09-12T10:44:14;5.75;;;1.45;;
65684;SDS011;52405;50.844;-1.062;2022-09-12T10:46:42;3.83;;;1.33;;
65684;SDS011;52405;50.844;-1.062;2022-09-12T10:49:19;2.03;;;1.52;;
65684;SDS011;52405;50.844;-1.062;2022-09-12T10:51:52;1.75;;;0.90;;
65684;SDS011;52405;50.844;-1.062;2022-09-12T10:54:20;3.33;;;1.15;;
65684;SDS011;52405;50.844;-1.062;2022-09-12T11:08:13;6.88;;;1.10;;
65684;SDS011;52405;50.844;-1.062;2022-09-12T11:13:38;4.50;;;1.45;;
65684;SDS011;52405;50.844;-1.062;2022-09-12T11:16:32;2.15;;;0.95;;
65684;SDS011;52405;50.844;-1.062;2022-09-12T11:24:36;2.22;;;1.20;;
65684;SDS011;52405;50.844;-1.062;2022-09-12T11:30:12;4.05;;;0.70;;
65684;SDS011;52405;50.844;-1.062;2022-09-12T11:32:50;3.10;;;0.73;;
65684;SDS011;52405;50.844;-1.062;2022-09-12T11:35:25;2.83;;;0.90;;
65684;SDS011;52405;50.844;-1.062;2022-09-12T11:46:00;4.68;;;1.23;;
65684;SDS011;52405;50.844;-1.062;2022-09-12T11:51:26;4.18;;;1.63;;
65684;SDS011;52405;50.844;-1.062;2022-09-12T11:54:04;4.60;;;1.00;;
65684;SDS011;52405;50.844;-1.062;2022-09-12T11:56:37;4.15;;;0.98;;
65684;SDS011;52405;50.844;-1.062;2022-09-12T11:59:12;3.35;;;0.82;;
65684;SDS011;52405;50.844;-1.062;2022-09-12T12:01:42;5.47;;;1.17;;
65684;SDS011;52405;50.844;-1.062;2022-09-12T12:04:11;3.25;;;1.30;;
65684;SDS011;52405;50.844;-1.062;2022-09-12T12:07:13;9.40;;;2.00;;
65684;SDS011;52405;50.844;-1.062;2022-09-12T12:09:34;9.25;;;1.77;;
65684;SDS011;52405;50.844;-1.062;2022-09-12T12:12:03;4.78;;;1.58;;
65684;SDS011;52405;50.844;-1.062;2022-09-12T12:14:52;4.65;;;1.10;;
65684;SDS011;52405;50.844;-1.062;2022-09-12T12:17:20;1.73;;;0.63;;
65684;SDS011;52405;50.844;-1.062;2022-09-12T12:19:54;3.35;;;0.90;;
65684;SDS011;52405;50.844;-1.062;2022-09-12T12:22:23;2.60;;;1.23;;
65684;SDS011;52405;50.844;-1.062;2022-09-12T12:24:53;2.85;;;0.80;;
65684;SDS011;52405;50.844;-1.062;2022-09-12T12:33:00;5.82;;;1.95;;
65684;SDS011;52405;50.844;-1.062;2022-09-12T12:38:52;2.05;;;0.98;;
65684;SDS011;52405;50.844;-1.062;2022-09-12T12:43:40;3.55;;;0.77;;
65684;SDS011;52405;50.844;-1.062;2022-09-12T12:46:08;8.90;;;1.00;;
65684;SDS011;52405;50.844;-1.062;2022-09-12T12:48:42;3.05;;;1.00;;
65684;SDS011;52405;50.844;-1.062;2022-09-12T12:53:47;5.82;;;1.60;;
65684;SDS011;52405;50.844;-1.062;2022-09-12T12:56:25;5.60;;;1.73;;
65684;SDS011;52405;50.844;-1.062;2022-09-12T12:59:16;3.97;;;1.15;;
65684;SDS011;52405;50.844;-1.062;2022-09-12T13:01:46;6.00;;;1.35;;
65684;SDS011;52405;50.844;-1.062;2022-09-12T13:04:19;4.80;;;1.48;;
65684;SDS011;52405;50.844;-1.062;2022-09-12T13:07:03;4.57;;;1.60;;
65684;SDS011;52405;50.844;-1.062;2022-09-12T13:12:01;1.80;;;1.02;;
65684;SDS011;52405;50.844;-1.062;2022-09-12T13:17:07;2.17;;;0.90;;
65684;SDS011;52405;50.844;-1.062;2022-09-12T13:19:43;2.60;;;1.10;;
65684;SDS011;52405;50.844;-1.062;2022-09-12T13:22:10;2.00;;;1.27;;
65684;SDS011;52405;50.844;-1.062;2022-09-12T13:24:45;5.90;;;1.67;;
65684;SDS011;52405;50.844;-1.062;2022-09-12T13:27:22;4.15;;;1.25;;
65684;SDS011;52405;50.844;-1.062;2022-09-12T13:29:49;6.47;;;1.20;;
65684;SDS011;52405;50.844;-1.062;2022-09-12T13:32:33;2.17;;;1.27;;
65684;SDS011;52405;50.844;-1.062;2022-09-12T13:35:04;4.22;;;1.15;;
65684;SDS011;52405;50.844;-1.062;2022-09-12T13:40:26;6.25;;;1.42;;
65684;SDS011;52405;50.844;-1.062;2022-09-12T13:43:06;4.75;;;1.30;;
65684;SDS011;52405;50.844;-1.062;2022-09-12T13:45:37;2.50;;;1.08;;
65684;SDS011;52405;50.844;-1.062;2022-09-12T13:48:03;2.60;;;1.05;;
65684;SDS011;52405;50.844;-1.062;2022-09-12T13:50:55;2.35;;;1.60;;
65684;SDS011;52405;50.844;-1.062;2022-09-12T13:53:28;4.47;;;1.42;;
65684;SDS011;52405;50.844;-1.062;2022-09-12T13:56:00;2.50;;;1.50;;
65684;SDS011;52405;50.844;-1.062;2022-09-12T13:58:27;3.08;;;1.23;;
65684;SDS011;52405;50.844;-1.062;2022-09-12T14:03:55;5.90;;;1.48;;
65684;SDS011;52405;50.844;-1.062;2022-09-12T14:06:44;8.25;;;1.42;;
65684;SDS011;52405;50.844;-1.062;2022-09-12T14:09:36;2.67;;;1.47;;
65684;SDS011;52405;50.844;-1.062;2022-09-12T14:12:03;6.05;;;1.40;;
65684;SDS011;52405;50.844;-1.062;2022-09-12T14:14:35;5.47;;;1.90;;
65684;SDS011;52405;50.844;-1.062;2022-09-12T14:17:14;3.65;;;1.83;;
65684;SDS011;52405;50.844;-1.062;2022-09-12T14:19:48;3.58;;;1.52;;
65684;SDS011;52405;50.844;-1.062;2022-09-12T14:22:15;1.83;;;1.10;;
65684;SDS011;52405;50.844;-1.062;2022-09-12T14:24:44;4.70;;;1.02;;
65684;SDS011;52405;50.844;-1.062;2022-09-12T14:27:20;4.00;;;1.20;;
65684;SDS011;52405;50.844;-1.062;2022-09-12T14:29:52;0.93;;;0.73;;
65684;SDS011;52405;50.844;-1.062;2022-09-12T14:32:26;2.85;;;1.10;;
65684;SDS011;52405;50.844;-1.062;2022-09-12T14:35:05;4.40;;;1.23;;
65684;SDS011;52405;50.844;-1.062;2022-09-12T14:37:47;3.85;;;1.48;;
65684;SDS011;52405;50.844;-1.062;2022-09-12T14:40:18;6.03;;;2.13;;
65684;SDS011;52405;50.844;-1.062;2022-09-12T14:42:46;7.25;;;3.05;;
65684;SDS011;52405;50.844;-1.062;2022-09-12T14:45:17;5.43;;;3.33;;
65684;SDS011;52405;50.844;-1.062;2022-09-12T14:47:49;9.02;;;3.42;;
65684;SDS011;52405;50.844;-1.062;2022-09-12T14:50:27;5.82;;;3.35;;
65684;SDS011;52405;50.844;-1.062;2022-09-12T14:53:06;7.03;;;2.50;;
65684;SDS011;52405;50.844;-1.062;2022-09-12T14:55:52;6.97;;;2.90;;
65684;SDS011;52405;50.844;-1.062;2022-09-12T14:58:24;7.88;;;2.92;;
65684;SDS011;52405;50.844;-1.062;2022-09-12T15:03:33;5.35;;;2.75;;
65684;SDS011;52405;50.844;-1.062;2022-09-12T15:06:01;6.90;;;3.28;;
65684;SDS011;52405;50.844;-1.062;2022-09-12T15:08:29;5.03;;;2.33;;
65684;SDS011;52405;50.844;-1.062;2022-09-12T15:10:56;5.45;;;2.60;;
65684;SDS011;52405;50.844;-1.062;2022-09-12T15:13:26;7.25;;;3.15;;
65684;SDS011;52405;50.844;-1.062;2022-09-12T15:15:55;5.32;;;2.13;;
65684;SDS011;52405;50.844;-1.062;2022-09-12T15:18:23;9.38;;;2.17;;
65684;SDS011;52405;50.844;-1.062;2022-09-12T15:20:54;5.55;;;2.67;;
65684;SDS011;52405;50.844;-1.062;2022-09-12T15:25:50;7.40;;;1.88;;
65684;SDS011;52405;50.844;-1.062;2022-09-12T15:28:19;4.95;;;2.10;;
65684;SDS011;52405;50.844;-1.062;2022-09-12T15:30:47;6.85;;;2.05;;
65684;SDS011;52405;50.844;-1.062;2022-09-12T15:33:18;3.83;;;1.48;;
65684;SDS011;52405;50.844;-1.062;2022-09-12T15:35:47;2.42;;;1.25;;
65684;SDS011;52405;50.844;-1.062;2022-09-12T15:38:12;1.55;;;0.80;;
65684;SDS011;52405;50.844;-1.062;2022-09-12T15:40:38;2.10;;;0.70;;
65684;SDS011;52405;50.844;-1.062;2022-09-12T15:43:04;1.63;;;0.80;;
65684;SDS011;52405;50.844;-1.062;2022-09-12T15:45:30;0.98;;;0.55;;
65684;SDS011;52405;50.844;-1.062;2022-09-12T15:47:57;2.83;;;0.82;;
65684;SDS011;52405;50.844;-1.062;2022-09-12T15:50:23;7.47;;;1.25;;
65684;SDS011;52405;50.844;-1.062;2022-09-12T15:52:49;3.65;;;1.95;;
65684;SDS011;52405;50.844;-1.062;2022-09-12T15:55:25;5.57;;;1.95;;
65684;SDS011;52405;50.844;-1.062;2022-09-12T15:57:53;6.20;;;2.00;;
65684;SDS011;52405;50.844;-1.062;2022-09-12T16:00:19;1.65;;;1.00;;
65684;SDS011;52405;50.844;-1.062;2022-09-12T16:02:45;2.38;;;0.98;;
65684;SDS011;52405;50.844;-1.062;2022-09-12T16:05:14;4.25;;;1.10;;
65684;SDS011;52405;50.844;-1.062;2022-09-12T16:07:42;2.30;;;0.82;;
65684;SDS011;52405;50.844;-1.062;2022-09-12T16:10:15;2.67;;;0.80;;
65684;SDS011;52405;50.844;-1.062;2022-09-12T16:12:42;3.28;;;0.90;;
65684;SDS011;52405;50.844;-1.062;2022-09-12T16:15:12;3.70;;;0.70;;
65684;SDS011;52405;50.844;-1.062;2022-09-12T16:17:40;1.98;;;0.63;;
65684;SDS011;52405;50.844;-1.062;2022-09-12T16:20:06;3.00;;;0.80;;
65684;SDS011;52405;50.844;-1.062;2022-09-12T16:22:32;1.48;;;1.05;;
65684;SDS011;52405;50.844;-1.062;2022-09-12T16:24:57;1.70;;;0.73;;
65684;SDS011;52405;50.844;-1.062;2022-09-12T16:27:22;2.85;;;0.73;;
65684;SDS011;52405;50.844;-1.062;2022-09-12T16:29:48;3.42;;;0.98;;
65684;SDS011;52405;50.844;-1.062;2022-09-12T16:32:15;3.05;;;1.05;;
65684;SDS011;52405;50.844;-1.062;2022-09-12T16:34:40;4.82;;;1.05;;
65684;SDS011;52405;50.844;-1.062;2022-09-12T16:37:06;4.72;;;1.50;;
65684;SDS011;52405;50.844;-1.062;2022-09-12T16:39:31;2.40;;;1.08;;
65684;SDS011;52405;50.844;-1.062;2022-09-12T16:41:58;5.75;;;1.65;;
65684;SDS011;52405;50.844;-1.062;2022-09-12T16:44:23;6.30;;;0.93;;
65684;SDS011;52405;50.844;-1.062;2022-09-12T16:46:49;5.28;;;1.85;;
65684;SDS011;52405;50.844;-1.062;2022-09-12T16:49:15;2.72;;;1.20;;
65684;SDS011;52405;50.844;-1.062;2022-09-12T16:51:40;2.78;;;1.35;;
65684;SDS011;52405;50.844;-1.062;2022-09-12T16:54:09;3.35;;;1.70;;
65684;SDS011;52405;50.844;-1.062;2022-09-12T16:56:34;14.02;;;4.07;;
65684;SDS011;52405;50.844;-1.062;2022-09-12T16:59:00;5.35;;;2.90;;
65684;SDS011;52405;50.844;-1.062;2022-09-12T17:01:26;8.73;;;3.45;;
65684;SDS011;52405;50.844;-1.062;2022-09-12T17:03:52;7.45;;;3.75;;
65684;SDS011;52405;50.844;-1.062;2022-09-12T17:06:19;8.48;;;3.53;;
65684;SDS011;52405;50.844;-1.062;2022-09-12T17:08:45;6.38;;;3.28;;
65684;SDS011;52405;50.844;-1.062;2022-09-12T17:11:15;5.40;;;3.42;;
65684;SDS011;52405;50.844;-1.062;2022-09-12T17:13:48;5.07;;;3.00;;
65684;SDS011;52405;50.844;-1.062;2022-09-12T17:16:14;6.95;;;2.38;;
65684;SDS011;52405;50.844;-1.062;2022-09-12T17:18:41;3.28;;;2.05;;
65684;SDS011;52405;50.844;-1.062;2022-09-12T17:21:07;5.72;;;2.30;;
65684;SDS011;52405;50.844;-1.062;2022-09-12T17:23:34;4.55;;;1.92;;